createdAt,value
2017-01-20T00:00:08.786Z,20
2017-01-20T00:01:34.221Z,19.97
2017-01-20T00:02:02.400Z,20.05
2017-01-20T00:02:30.402Z,20.04
2017-01-20T00:04:34.253Z,20.05
2017-01-20T00:05:02.476Z,20.02
2017-01-20T00:05:30.717Z,20.02
2017-01-20T00:05:58.915Z,20
2017-01-20T00:06:27.192Z,19.94
2017-01-20T00:06:55.449Z,19.94
2017-01-20T00:08:06.394Z,20.04
2017-01-20T00:08:49.060Z,19.97
2017-01-20T00:09:17.424Z,19.97
2017-01-20T00:09:45.699Z,19.92
2017-01-20T00:11:05.707Z,19.89
2017-01-20T00:11:33.918Z,19.92
2017-01-20T00:12:01.954Z,19.96
2017-01-20T00:12:30.115Z,19.9
2017-01-20T00:13:12.900Z,19.9
2017-01-20T00:13:55.742Z,19.78
2017-01-20T00:14:53.039Z,19.84
2017-01-20T00:15:21.282Z,19.84
2017-01-20T00:16:32.324Z,19.87
2017-01-20T00:17:00.596Z,19.79
2017-01-20T00:17:28.705Z,19.79
2017-01-20T00:18:39.904Z,19.82
2017-01-20T00:19:07.927Z,19.78
2017-01-20T00:20:18.545Z,19.89
2017-01-20T00:20:46.840Z,19.79
2017-01-20T00:21:15.141Z,19.9
2017-01-20T00:21:43.403Z,19.87
2017-01-20T00:22:11.720Z,19.92
2017-01-20T00:22:54.520Z,19.87
2017-01-20T00:23:22.786Z,19.9
2017-01-20T00:23:51.118Z,19.9
2017-01-20T00:24:19.316Z,19.86
2017-01-20T00:25:13.631Z,19.9
2017-01-20T00:25:41.653Z,19.87
2017-01-20T00:26:38.924Z,19.9
2017-01-20T00:27:07.020Z,19.93
2017-01-20T00:27:35.109Z,19.84
2017-01-20T00:28:03.285Z,19.92
2017-01-20T00:28:31.369Z,19.94
2017-01-20T00:28:59.584Z,19.87
2017-01-20T00:29:42.480Z,19.82
2017-01-20T00:30:25.276Z,19.9
2017-01-20T00:30:53.593Z,19.87
2017-01-20T00:31:21.885Z,19.84
2017-01-20T00:32:27.417Z,19.79
2017-01-20T00:32:55.627Z,19.79
2017-01-20T00:33:23.781Z,19.84
2017-01-20T00:34:06.523Z,19.84
2017-01-20T00:35:32.027Z,19.86
2017-01-20T00:36:29.155Z,19.82
2017-01-20T00:36:57.506Z,19.87
2017-01-20T00:37:25.538Z,19.89
2017-01-20T00:38:08.181Z,19.89
2017-01-20T00:38:36.439Z,19.92
2017-01-20T00:40:01.982Z,19.97
2017-01-20T00:41:01.770Z,20
2017-01-20T00:42:27.348Z,20.04
2017-01-20T00:42:55.551Z,20.12
2017-01-20T00:43:38.199Z,19.97
2017-01-20T00:44:48.979Z,19.93
2017-01-20T00:45:31.691Z,19.96
2017-01-20T00:45:59.747Z,19.92
2017-01-20T00:47:24.835Z,19.9
2017-01-20T00:47:53.138Z,19.92
2017-01-20T00:48:50.373Z,19.9
2017-01-20T00:50:16.042Z,19.9
2017-01-20T00:50:58.824Z,19.86
2017-01-20T00:51:41.541Z,19.82
2017-01-20T00:52:09.731Z,19.89
2017-01-20T00:52:37.929Z,19.84
2017-01-20T00:53:20.517Z,19.94
2017-01-20T00:54:03.286Z,19.97
2017-01-20T00:54:31.574Z,20.04
2017-01-20T00:54:59.748Z,20
2017-01-20T00:55:28.065Z,20.07
2017-01-20T00:55:56.316Z,20.04
2017-01-20T00:57:50.567Z,20.08
2017-01-20T00:58:19.177Z,20.09
2017-01-20T00:59:44.841Z,20.17
2017-01-20T01:00:12.889Z,20.17
2017-01-20T01:00:41.066Z,20.11
2017-01-20T01:01:09.191Z,20.11
2017-01-20T01:01:37.429Z,20.15
2017-01-20T01:02:20.125Z,20.19
2017-01-20T01:03:31.651Z,20.18
2017-01-20T01:04:57.188Z,20.15
2017-01-20T01:05:39.810Z,20.08
2017-01-20T01:06:45.389Z,20.17
2017-01-20T01:07:56.220Z,20.19
2017-01-20T01:08:38.933Z,20.18
2017-01-20T01:09:49.732Z,20.17
2017-01-20T01:10:32.391Z,20.04
2017-01-20T01:11:15.058Z,20.14
2017-01-20T01:11:43.221Z,20.17
2017-01-20T01:12:40.384Z,20.09
2017-01-20T01:13:08.694Z,20.08
2017-01-20T01:13:36.953Z,20.05
2017-01-20T01:14:19.589Z,20.12
2017-01-20T01:15:19.518Z,20.12
2017-01-20T01:16:02.155Z,20.05
2017-01-20T01:16:30.713Z,20.12
2017-01-20T01:17:13.423Z,20.12
2017-01-20T01:17:41.655Z,20.18
2017-01-20T01:18:09.832Z,20.19
2017-01-20T01:18:38.041Z,20.18
2017-01-20T01:19:06.279Z,20.08
2017-01-20T01:19:34.597Z,20.12
2017-01-20T01:20:02.627Z,20.15
2017-01-20T01:20:45.403Z,20.12
2017-01-20T01:21:13.554Z,20.22
2017-01-20T01:22:33.704Z,20.19
2017-01-20T01:23:01.956Z,20.17
2017-01-20T01:23:30.149Z,20.09
2017-01-20T01:23:58.171Z,20.09
2017-01-20T01:24:26.330Z,20.07
2017-01-20T01:24:54.323Z,20.07
2017-01-20T01:25:22.527Z,20.04
2017-01-20T01:26:05.254Z,19.96
2017-01-20T01:26:33.486Z,19.97
2017-01-20T01:27:01.690Z,19.93
2017-01-20T01:27:29.945Z,19.93
2017-01-20T01:27:58.204Z,19.89
2017-01-20T01:28:46.821Z,19.9
2017-01-20T01:29:29.451Z,19.93
2017-01-20T01:29:57.647Z,19.89
2017-01-20T01:30:25.784Z,19.84
2017-01-20T01:30:53.845Z,19.81
2017-01-20T01:31:21.731Z,19.82
2017-01-20T01:31:49.937Z,19.82
2017-01-20T01:32:18.093Z,19.79
2017-01-20T01:32:46.320Z,19.84
2017-01-20T01:33:29.006Z,19.87
2017-01-20T01:33:56.991Z,19.82
2017-01-20T01:34:39.631Z,19.78
2017-01-20T01:36:36.859Z,19.84
2017-01-20T01:37:19.607Z,19.77
2017-01-20T01:38:16.842Z,19.78
2017-01-20T01:39:28.510Z,19.78
2017-01-20T01:40:39.296Z,19.75
2017-01-20T01:41:07.583Z,19.78
2017-01-20T01:41:35.866Z,19.78
2017-01-20T01:42:18.503Z,19.77
2017-01-20T01:42:46.621Z,19.75
2017-01-20T01:43:14.747Z,19.77
2017-01-20T01:43:42.897Z,19.77
2017-01-20T01:44:25.653Z,19.78
2017-01-20T01:45:14.363Z,19.79
2017-01-20T01:45:42.438Z,19.81
2017-01-20T01:46:53.150Z,19.72
2017-01-20T01:47:21.220Z,19.81
2017-01-20T01:47:49.477Z,19.87
2017-01-20T01:49:57.311Z,19.77
2017-01-20T01:50:25.615Z,19.78
2017-01-20T01:50:53.922Z,19.75
2017-01-20T01:52:33.676Z,19.78
2017-01-20T01:53:28.055Z,19.78
2017-01-20T01:53:56.308Z,19.67
2017-01-20T01:54:24.596Z,19.64
2017-01-20T01:54:52.714Z,19.74
2017-01-20T01:56:18.098Z,19.71
2017-01-20T01:57:00.790Z,19.75
2017-01-20T01:57:28.944Z,19.78
2017-01-20T01:57:57.150Z,19.77
2017-01-20T01:58:25.443Z,19.77
2017-01-20T01:58:53.742Z,19.7
2017-01-20T01:59:21.786Z,19.7
2017-01-20T02:00:21.716Z,19.71
2017-01-20T02:00:49.879Z,19.72
2017-01-20T02:01:17.983Z,19.7
2017-01-20T02:01:45.914Z,19.68
2017-01-20T02:02:14.169Z,19.77
2017-01-20T02:02:42.350Z,19.67
2017-01-20T02:03:10.463Z,19.74
2017-01-20T02:03:38.538Z,19.67
2017-01-20T02:04:06.757Z,19.74
2017-01-20T02:04:49.452Z,19.72
2017-01-20T02:05:17.520Z,19.63
2017-01-20T02:05:45.592Z,19.63
2017-01-20T02:06:34.209Z,19.64
2017-01-20T02:07:16.840Z,19.64
2017-01-20T02:07:59.509Z,19.62
2017-01-20T02:08:27.554Z,19.71
2017-01-20T02:08:55.694Z,19.64
2017-01-20T02:09:23.864Z,19.62
2017-01-20T02:09:52.084Z,19.64
2017-01-20T02:10:20.214Z,19.63
2017-01-20T02:10:48.538Z,19.62
2017-01-20T02:11:16.754Z,19.62
2017-01-20T02:11:45.017Z,19.6
2017-01-20T02:12:27.556Z,19.57
2017-01-20T02:13:47.610Z,19.59
2017-01-20T02:14:15.863Z,19.52
2017-01-20T02:14:43.963Z,19.59
2017-01-20T02:15:12.078Z,19.7
2017-01-20T02:15:40.239Z,19.63
2017-01-20T02:16:22.891Z,19.57
2017-01-20T02:16:51.012Z,19.59
2017-01-20T02:17:19.164Z,19.64
2017-01-20T02:17:47.491Z,19.63
2017-01-20T02:18:15.812Z,19.6
2017-01-20T02:18:44.055Z,19.56
2017-01-20T02:19:12.216Z,19.62
2017-01-20T02:20:00.832Z,19.62
2017-01-20T02:20:29.026Z,19.56
2017-01-20T02:20:57.214Z,19.6
2017-01-20T02:21:25.326Z,19.57
2017-01-20T02:22:07.975Z,19.6
2017-01-20T02:22:50.617Z,19.59
2017-01-20T02:23:18.923Z,19.57
2017-01-20T02:24:01.557Z,19.6
2017-01-20T02:24:44.218Z,19.62
2017-01-20T02:25:12.524Z,19.59
2017-01-20T02:25:55.318Z,19.59
2017-01-20T02:26:38.048Z,19.6
2017-01-20T02:27:06.304Z,19.7
2017-01-20T02:27:55.014Z,19.57
2017-01-20T02:28:23.177Z,19.62
2017-01-20T02:29:05.837Z,19.67
2017-01-20T02:29:33.975Z,19.6
2017-01-20T02:30:02.040Z,19.64
2017-01-20T02:30:30.211Z,19.64
2017-01-20T02:31:41.930Z,19.63
2017-01-20T02:33:07.228Z,19.63
2017-01-20T02:34:32.772Z,19.72
2017-01-20T02:35:15.438Z,19.7
2017-01-20T02:35:43.591Z,19.56
2017-01-20T02:37:31.702Z,19.57
2017-01-20T02:38:14.273Z,19.75
2017-01-20T02:38:42.417Z,19.72
2017-01-20T02:40:22.263Z,19.71
2017-01-20T02:40:50.441Z,19.64
2017-01-20T02:41:18.642Z,19.67
2017-01-20T02:41:46.804Z,19.62
2017-01-20T02:42:15.018Z,19.64
2017-01-20T02:42:43.240Z,19.62
2017-01-20T02:43:25.879Z,19.63
2017-01-20T02:43:54.039Z,19.6
2017-01-20T02:44:42.749Z,19.7
2017-01-20T02:45:10.722Z,19.68
2017-01-20T02:45:38.909Z,19.63
2017-01-20T02:46:06.832Z,19.63
2017-01-20T02:46:49.476Z,19.57
2017-01-20T02:47:32.023Z,19.59
2017-01-20T02:48:14.803Z,19.68
2017-01-20T02:48:42.957Z,19.62
2017-01-20T02:49:11.371Z,19.68
2017-01-20T02:49:40.317Z,19.6
2017-01-20T02:50:23.241Z,19.6
2017-01-20T02:50:51.293Z,19.64
2017-01-20T02:51:56.867Z,19.59
2017-01-20T02:53:22.260Z,19.63
2017-01-20T02:53:50.495Z,19.64
2017-01-20T02:55:15.672Z,19.63
2017-01-20T02:55:58.327Z,19.71
2017-01-20T02:57:09.349Z,19.64
2017-01-20T02:57:52.043Z,19.6
2017-01-20T02:58:34.715Z,19.63
2017-01-20T02:59:03.014Z,19.63
2017-01-20T02:59:45.725Z,19.62
2017-01-20T03:00:51.398Z,19.72
2017-01-20T03:01:19.470Z,19.64
2017-01-20T03:01:47.666Z,19.62
2017-01-20T03:02:15.778Z,19.6
2017-01-20T03:02:44.041Z,19.67
2017-01-20T03:03:12.123Z,19.62
2017-01-20T03:03:40.233Z,19.6
2017-01-20T03:04:08.308Z,19.56
2017-01-20T03:04:36.615Z,19.56
2017-01-20T03:05:04.834Z,19.6
2017-01-20T03:05:32.977Z,19.62
2017-01-20T03:06:44.307Z,19.62
2017-01-20T03:07:12.472Z,19.62
2017-01-20T03:07:40.761Z,19.62
2017-01-20T03:08:08.969Z,19.68
2017-01-20T03:08:51.715Z,19.63
2017-01-20T03:09:19.972Z,19.63
2017-01-20T03:09:48.095Z,19.59
2017-01-20T03:10:16.053Z,19.57
2017-01-20T03:10:44.285Z,19.64
2017-01-20T03:11:12.404Z,19.63
2017-01-20T03:12:09.630Z,19.6
2017-01-20T03:12:52.249Z,19.68
2017-01-20T03:13:57.735Z,19.75
2017-01-20T03:14:25.799Z,19.72
2017-01-20T03:14:53.904Z,19.71
2017-01-20T03:15:22.109Z,19.72
2017-01-20T03:15:50.275Z,19.67
2017-01-20T03:16:18.454Z,19.77
2017-01-20T03:16:46.475Z,19.7
2017-01-20T03:17:14.732Z,19.64
2017-01-20T03:17:57.517Z,19.59
2017-01-20T03:18:25.727Z,19.84
2017-01-20T03:18:53.985Z,19.72
2017-01-20T03:19:22.242Z,19.77
2017-01-20T03:20:53.681Z,19.7
2017-01-20T03:21:21.776Z,19.72
2017-01-20T03:21:49.914Z,19.72
2017-01-20T03:22:17.978Z,19.67
2017-01-20T03:22:46.237Z,19.75
2017-01-20T03:23:14.363Z,19.78
2017-01-20T03:23:42.417Z,19.77
2017-01-20T03:24:10.556Z,19.75
2017-01-20T03:24:38.766Z,19.71
2017-01-20T03:25:06.932Z,19.71
2017-01-20T03:25:34.903Z,19.75
2017-01-20T03:26:23.616Z,19.74
2017-01-20T03:26:51.868Z,19.72
2017-01-20T03:27:19.879Z,19.71
2017-01-20T03:27:48.087Z,19.71
2017-01-20T03:28:16.251Z,19.62
2017-01-20T03:28:44.335Z,19.72
2017-01-20T03:29:12.542Z,19.7
2017-01-20T03:29:40.705Z,19.74
2017-01-20T03:30:08.850Z,19.74
2017-01-20T03:30:36.978Z,19.62
2017-01-20T03:31:05.236Z,19.71
2017-01-20T03:32:16.472Z,19.68
2017-01-20T03:32:44.668Z,19.67
2017-01-20T03:33:27.331Z,19.6
2017-01-20T03:34:09.948Z,19.62
2017-01-20T03:34:38.081Z,19.67
2017-01-20T03:35:06.252Z,19.59
2017-01-20T03:35:34.462Z,19.7
2017-01-20T03:36:45.200Z,19.62
2017-01-20T03:37:27.856Z,19.6
2017-01-20T03:37:56.159Z,19.68
2017-01-20T03:38:38.877Z,19.62
2017-01-20T03:39:21.536Z,19.67
2017-01-20T03:40:10.249Z,19.6
2017-01-20T03:40:38.511Z,19.74
2017-01-20T03:41:06.710Z,19.72
2017-01-20T03:42:32.035Z,19.74
2017-01-20T03:43:00.029Z,19.71
2017-01-20T03:43:28.051Z,19.71
2017-01-20T03:43:56.192Z,19.74
2017-01-20T03:44:24.512Z,19.72
2017-01-20T03:44:52.728Z,19.77
2017-01-20T03:45:20.987Z,19.72
2017-01-20T03:45:49.236Z,19.72
2017-01-20T03:46:43.618Z,19.71
2017-01-20T03:47:11.868Z,19.72
2017-01-20T03:47:40.152Z,19.7
2017-01-20T03:48:08.258Z,19.74
2017-01-20T03:48:36.417Z,19.74
2017-01-20T03:49:04.408Z,19.7
2017-01-20T03:49:32.421Z,19.7
2017-01-20T03:50:00.492Z,19.6
2017-01-20T03:50:28.700Z,19.59
2017-01-20T03:50:56.823Z,19.59
2017-01-20T03:51:24.869Z,19.63
2017-01-20T03:52:36.102Z,19.7
2017-01-20T03:53:04.168Z,19.74
2017-01-20T03:53:32.459Z,19.74
2017-01-20T03:54:00.601Z,19.74
2017-01-20T03:55:11.327Z,19.7
2017-01-20T03:55:39.538Z,19.67
2017-01-20T03:56:07.500Z,19.75
2017-01-20T03:56:35.728Z,19.71
2017-01-20T03:57:03.843Z,19.77
2017-01-20T03:57:32.006Z,19.75
2017-01-20T03:58:00.167Z,19.7
2017-01-20T03:58:48.878Z,19.7
2017-01-20T03:59:17.130Z,19.68
2017-01-20T03:59:45.416Z,19.64
2017-01-20T04:00:28.021Z,19.72
2017-01-20T04:00:56.083Z,19.82
2017-01-20T04:01:24.158Z,19.78
2017-01-20T04:01:52.362Z,19.75
2017-01-20T04:02:20.623Z,19.75
2017-01-20T04:02:48.942Z,19.72
2017-01-20T04:03:17.149Z,19.79
2017-01-20T04:03:45.319Z,19.78
2017-01-20T04:04:13.483Z,19.75
2017-01-20T04:05:02.102Z,19.75
2017-01-20T04:05:30.354Z,19.78
2017-01-20T04:05:58.642Z,19.77
2017-01-20T04:06:26.848Z,19.79
2017-01-20T04:06:55.105Z,19.77
2017-01-20T04:07:23.192Z,19.77
2017-01-20T04:07:51.492Z,19.77
2017-01-20T04:08:19.557Z,19.79
2017-01-20T04:08:47.674Z,19.78
2017-01-20T04:09:15.799Z,19.74
2017-01-20T04:09:44.036Z,19.78
2017-01-20T04:10:55.271Z,19.79
2017-01-20T04:11:23.431Z,19.78
2017-01-20T04:11:51.622Z,19.72
2017-01-20T04:12:19.727Z,19.79
2017-01-20T04:12:47.888Z,19.78
2017-01-20T04:13:16.159Z,19.74
2017-01-20T04:13:44.457Z,19.78
2017-01-20T04:14:12.618Z,19.72
2017-01-20T04:14:40.733Z,19.81
2017-01-20T04:15:08.663Z,19.72
2017-01-20T04:15:36.900Z,19.77
2017-01-20T04:16:48.228Z,19.86
2017-01-20T04:17:16.291Z,19.75
2017-01-20T04:17:44.386Z,19.78
2017-01-20T04:18:12.498Z,19.81
2017-01-20T04:18:41.088Z,19.77
2017-01-20T04:19:09.359Z,19.77
2017-01-20T04:19:37.655Z,19.79
2017-01-20T04:20:05.724Z,19.75
2017-01-20T04:20:34.024Z,19.78
2017-01-20T04:21:02.235Z,19.79
2017-01-20T04:21:30.378Z,19.71
2017-01-20T04:22:41.607Z,19.87
2017-01-20T04:23:09.766Z,19.81
2017-01-20T04:23:37.961Z,19.89
2017-01-20T04:24:06.077Z,19.86
2017-01-20T04:24:34.238Z,19.82
2017-01-20T04:25:02.419Z,19.82
2017-01-20T04:25:30.629Z,19.81
2017-01-20T04:25:58.702Z,19.84
2017-01-20T04:26:26.820Z,19.81
2017-01-20T04:26:55.034Z,19.87
2017-01-20T04:27:23.173Z,19.84
2017-01-20T04:28:34.314Z,19.82
2017-01-20T04:29:02.387Z,19.84
2017-01-20T04:29:30.579Z,19.79
2017-01-20T04:29:58.780Z,19.87
2017-01-20T04:30:26.849Z,19.79
2017-01-20T04:30:55.125Z,19.86
2017-01-20T04:31:23.416Z,19.82
2017-01-20T04:31:51.385Z,19.79
2017-01-20T04:32:19.592Z,19.82
2017-01-20T04:32:47.810Z,19.82
2017-01-20T04:33:15.950Z,19.82
2017-01-20T04:34:27.091Z,19.86
2017-01-20T04:34:55.251Z,19.79
2017-01-20T04:35:23.537Z,19.89
2017-01-20T04:35:51.745Z,19.89
2017-01-20T04:36:19.904Z,19.94
2017-01-20T04:36:48.081Z,19.89
2017-01-20T04:37:16.193Z,19.89
2017-01-20T04:37:44.261Z,19.9
2017-01-20T04:38:12.469Z,19.84
2017-01-20T04:38:40.597Z,19.96
2017-01-20T04:39:08.831Z,19.9
2017-01-20T04:40:20.161Z,19.9
2017-01-20T04:40:48.227Z,19.9
2017-01-20T04:41:16.421Z,19.84
2017-01-20T04:41:44.460Z,19.94
2017-01-20T04:42:12.529Z,19.92
2017-01-20T04:42:40.612Z,19.79
2017-01-20T04:43:08.816Z,19.84
2017-01-20T04:43:36.883Z,19.84
2017-01-20T04:44:05.001Z,19.81
2017-01-20T04:44:33.225Z,19.86
2017-01-20T04:45:01.460Z,19.81
2017-01-20T04:46:12.693Z,19.87
2017-01-20T04:46:40.756Z,19.82
2017-01-20T04:47:09.043Z,19.72
2017-01-20T04:47:37.162Z,19.75
2017-01-20T04:48:05.328Z,19.77
2017-01-20T04:48:33.417Z,19.71
2017-01-20T04:49:01.615Z,19.72
2017-01-20T04:49:29.782Z,19.74
2017-01-20T04:49:57.989Z,19.79
2017-01-20T04:50:26.019Z,19.81
2017-01-20T04:50:54.158Z,19.77
2017-01-20T04:52:05.395Z,19.74
2017-01-20T04:52:33.648Z,19.82
2017-01-20T04:53:01.841Z,19.72
2017-01-20T04:53:29.865Z,19.72
2017-01-20T04:53:58.118Z,19.74
2017-01-20T04:54:26.206Z,19.75
2017-01-20T04:54:54.316Z,19.77
2017-01-20T04:55:22.293Z,19.77
2017-01-20T04:55:50.413Z,19.79
2017-01-20T04:56:18.724Z,19.75
2017-01-20T04:57:01.362Z,19.78
2017-01-20T04:57:29.425Z,19.75
2017-01-20T04:58:18.134Z,19.79
2017-01-20T04:58:46.106Z,19.86
2017-01-20T04:59:14.300Z,19.86
2017-01-20T04:59:42.506Z,19.79
2017-01-20T05:00:10.759Z,19.79
2017-01-20T05:00:38.940Z,19.78
2017-01-20T05:01:07.144Z,19.79
2017-01-20T05:01:35.211Z,19.79
2017-01-20T05:02:03.423Z,19.78
2017-01-20T05:02:31.638Z,19.86
2017-01-20T05:02:59.873Z,19.75
2017-01-20T05:05:08.317Z,19.78
2017-01-20T05:05:36.499Z,19.79
2017-01-20T05:06:04.737Z,19.78
2017-01-20T05:06:32.877Z,19.82
2017-01-20T05:07:01.144Z,19.86
2017-01-20T05:07:29.260Z,19.84
2017-01-20T05:07:57.399Z,19.81
2017-01-20T05:08:25.530Z,19.81
2017-01-20T05:08:53.837Z,19.81
2017-01-20T05:09:22.093Z,19.81
2017-01-20T05:09:50.247Z,19.78
2017-01-20T05:10:44.627Z,19.81
2017-01-20T05:11:12.693Z,19.77
2017-01-20T05:11:40.997Z,19.72
2017-01-20T05:12:09.094Z,19.78
2017-01-20T05:12:37.255Z,19.7
2017-01-20T05:13:05.337Z,19.75
2017-01-20T05:13:33.442Z,19.72
2017-01-20T05:14:01.511Z,19.78
2017-01-20T05:14:29.820Z,19.75
2017-01-20T05:14:58.032Z,19.78
2017-01-20T05:15:26.267Z,19.72
2017-01-20T05:16:37.215Z,19.74
2017-01-20T05:17:05.375Z,19.79
2017-01-20T05:17:33.663Z,19.72
2017-01-20T05:18:01.775Z,19.75
2017-01-20T05:18:29.936Z,19.77
2017-01-20T05:18:58.026Z,19.75
2017-01-20T05:19:40.803Z,19.78
2017-01-20T05:20:23.518Z,19.81
2017-01-20T05:20:51.557Z,19.75
2017-01-20T05:21:19.869Z,19.74
2017-01-20T05:21:47.849Z,19.74
2017-01-20T05:22:15.914Z,19.75
2017-01-20T05:23:10.295Z,19.78
2017-01-20T05:23:38.450Z,19.79
2017-01-20T05:24:21.109Z,19.78
2017-01-20T05:24:49.244Z,19.75
2017-01-20T05:25:59.944Z,19.75
2017-01-20T05:26:28.060Z,19.71
2017-01-20T05:26:56.007Z,19.74
2017-01-20T05:27:24.233Z,19.71
2017-01-20T05:28:06.994Z,19.7
2017-01-20T05:28:35.200Z,19.77
2017-01-20T05:29:03.245Z,19.79
2017-01-20T05:30:03.272Z,19.7
2017-01-20T05:30:31.335Z,19.67
2017-01-20T05:30:59.623Z,19.75
2017-01-20T05:31:27.835Z,19.74
2017-01-20T05:31:56.092Z,19.7
2017-01-20T05:32:38.745Z,19.75
2017-01-20T05:33:06.949Z,19.78
2017-01-20T05:33:35.100Z,19.81
2017-01-20T05:34:17.706Z,19.78
2017-01-20T05:34:45.735Z,19.87
2017-01-20T05:35:13.713Z,19.81
2017-01-20T05:35:41.959Z,19.79
2017-01-20T05:37:18.986Z,19.86
2017-01-20T05:37:47.272Z,19.84
2017-01-20T05:38:44.381Z,19.81
2017-01-20T05:39:26.984Z,19.9
2017-01-20T05:39:55.161Z,19.79
2017-01-20T05:40:23.257Z,19.84
2017-01-20T05:40:51.260Z,19.86
2017-01-20T05:41:19.332Z,19.92
2017-01-20T05:41:47.538Z,19.86
2017-01-20T05:42:30.326Z,19.82
2017-01-20T05:42:58.563Z,19.87
2017-01-20T05:44:09.797Z,19.87
2017-01-20T05:44:52.426Z,19.92
2017-01-20T05:45:20.707Z,19.89
2017-01-20T05:45:48.840Z,19.84
2017-01-20T05:46:31.560Z,19.81
2017-01-20T05:46:59.757Z,19.89
2017-01-20T05:47:42.535Z,19.86
2017-01-20T05:48:10.595Z,19.79
2017-01-20T05:48:38.701Z,19.92
2017-01-20T05:49:06.808Z,19.94
2017-01-20T05:49:34.912Z,19.87
2017-01-20T05:50:02.960Z,19.84
2017-01-20T05:51:02.887Z,19.87
2017-01-20T05:51:31.047Z,19.86
2017-01-20T05:51:59.334Z,19.97
2017-01-20T05:52:27.447Z,19.92
2017-01-20T05:52:55.516Z,19.93
2017-01-20T05:53:23.505Z,19.82
2017-01-20T05:53:51.615Z,19.92
2017-01-20T05:54:19.778Z,19.81
2017-01-20T05:54:47.995Z,19.92
2017-01-20T05:55:16.209Z,19.84
2017-01-20T05:55:44.444Z,19.82
2017-01-20T05:56:55.772Z,19.9
2017-01-20T05:57:24.021Z,19.89
2017-01-20T05:57:52.310Z,19.89
2017-01-20T05:58:20.510Z,19.84
2017-01-20T05:58:48.674Z,19.86
2017-01-20T05:59:16.848Z,19.84
2017-01-20T05:59:44.966Z,19.86
2017-01-20T06:00:13.037Z,19.79
2017-01-20T06:00:41.341Z,19.81
2017-01-20T06:01:09.655Z,19.86
2017-01-20T06:01:37.793Z,19.9
2017-01-20T06:02:49.029Z,19.86
2017-01-20T06:03:17.191Z,19.81
2017-01-20T06:03:45.388Z,19.82
2017-01-20T06:04:13.595Z,19.78
2017-01-20T06:04:41.757Z,19.84
2017-01-20T06:05:09.843Z,19.84
2017-01-20T06:05:38.135Z,19.84
2017-01-20T06:06:06.199Z,19.82
2017-01-20T06:06:34.504Z,19.84
2017-01-20T06:07:02.723Z,19.78
2017-01-20T06:07:30.956Z,19.84
2017-01-20T06:08:42.094Z,19.77
2017-01-20T06:09:10.343Z,19.78
2017-01-20T06:09:38.632Z,19.72
2017-01-20T06:10:06.838Z,19.71
2017-01-20T06:10:34.997Z,19.77
2017-01-20T06:11:03.084Z,19.74
2017-01-20T06:11:31.013Z,19.82
2017-01-20T06:11:59.079Z,19.78
2017-01-20T06:12:27.285Z,19.81
2017-01-20T06:12:55.226Z,19.77
2017-01-20T06:13:23.279Z,19.77
2017-01-20T06:14:34.512Z,19.72
2017-01-20T06:15:02.670Z,19.72
2017-01-20T06:15:30.862Z,19.77
2017-01-20T06:15:58.976Z,19.74
2017-01-20T06:16:27.236Z,19.71
2017-01-20T06:16:55.321Z,19.79
2017-01-20T06:17:23.523Z,19.79
2017-01-20T06:17:51.775Z,19.79
2017-01-20T06:18:19.985Z,19.77
2017-01-20T06:18:48.207Z,19.79
2017-01-20T06:19:16.343Z,19.86
2017-01-20T06:20:27.672Z,19.86
2017-01-20T06:20:55.927Z,19.86
2017-01-20T06:21:24.123Z,19.82
2017-01-20T06:21:52.233Z,19.86
2017-01-20T06:22:20.490Z,19.84
2017-01-20T06:22:48.758Z,19.82
2017-01-20T06:23:17.057Z,19.81
2017-01-20T06:23:45.126Z,19.79
2017-01-20T06:24:13.147Z,19.82
2017-01-20T06:24:41.273Z,19.84
2017-01-20T06:25:09.418Z,19.86
2017-01-20T06:26:20.745Z,19.86
2017-01-20T06:26:48.806Z,19.84
2017-01-20T06:27:17.003Z,19.84
2017-01-20T06:27:45.214Z,19.81
2017-01-20T06:28:13.986Z,19.84
2017-01-20T06:28:42.257Z,19.84
2017-01-20T06:29:10.461Z,19.84
2017-01-20T06:29:38.341Z,19.81
2017-01-20T06:30:06.646Z,19.82
2017-01-20T06:30:34.867Z,19.84
2017-01-20T06:31:02.916Z,19.75
2017-01-20T06:32:14.057Z,19.79
2017-01-20T06:32:42.123Z,19.79
2017-01-20T06:33:10.322Z,19.84
2017-01-20T06:33:38.530Z,19.87
2017-01-20T06:34:06.692Z,19.81
2017-01-20T06:34:34.870Z,19.84
2017-01-20T06:35:02.978Z,19.78
2017-01-20T06:35:31.047Z,19.86
2017-01-20T06:35:59.257Z,19.86
2017-01-20T06:36:27.563Z,19.84
2017-01-20T06:36:55.701Z,19.86
2017-01-20T06:38:06.751Z,19.84
2017-01-20T06:38:34.910Z,19.81
2017-01-20T06:39:03.103Z,19.9
2017-01-20T06:39:31.122Z,19.79
2017-01-20T06:39:58.914Z,19.84
2017-01-20T06:40:27.192Z,19.82
2017-01-20T06:40:55.491Z,19.81
2017-01-20T06:41:23.653Z,19.86
2017-01-20T06:41:51.777Z,19.84
2017-01-20T06:42:20.085Z,19.82
2017-01-20T06:42:48.226Z,19.82
2017-01-20T06:43:59.371Z,19.79
2017-01-20T06:44:27.532Z,19.78
2017-01-20T06:44:55.627Z,19.72
2017-01-20T06:45:23.741Z,19.79
2017-01-20T06:45:51.908Z,19.82
2017-01-20T06:46:20.086Z,19.72
2017-01-20T06:46:48.199Z,19.75
2017-01-20T06:47:16.357Z,19.74
2017-01-20T06:47:44.564Z,19.74
2017-01-20T06:48:12.874Z,19.75
2017-01-20T06:48:40.736Z,19.72
2017-01-20T06:49:52.063Z,19.71
2017-01-20T06:50:20.223Z,19.75
2017-01-20T06:50:48.226Z,19.7
2017-01-20T06:51:16.340Z,19.7
2017-01-20T06:51:44.497Z,19.7
2017-01-20T06:52:12.671Z,19.7
2017-01-20T06:52:40.967Z,19.74
2017-01-20T06:53:09.227Z,19.72
2017-01-20T06:53:37.338Z,19.67
2017-01-20T06:54:05.558Z,19.71
2017-01-20T06:54:33.696Z,19.75
2017-01-20T06:55:44.837Z,19.7
2017-01-20T06:56:12.902Z,19.71
2017-01-20T06:56:41.000Z,19.7
2017-01-20T06:57:09.121Z,19.74
2017-01-20T06:57:37.379Z,19.75
2017-01-20T06:58:05.464Z,19.67
2017-01-20T06:58:33.758Z,19.79
2017-01-20T06:59:01.830Z,19.74
2017-01-20T06:59:30.139Z,19.67
2017-01-20T06:59:58.357Z,19.67
2017-01-20T07:00:26.498Z,19.7
2017-01-20T07:01:37.632Z,19.78
2017-01-20T07:02:05.695Z,19.78
2017-01-20T07:02:33.984Z,19.77
2017-01-20T07:03:02.190Z,19.72
2017-01-20T07:03:30.356Z,19.78
2017-01-20T07:03:58.440Z,19.78
2017-01-20T07:04:26.736Z,19.86
2017-01-20T07:04:54.897Z,19.81
2017-01-20T07:05:23.204Z,19.86
2017-01-20T07:05:51.324Z,19.79
2017-01-20T07:06:19.370Z,19.78
2017-01-20T07:07:30.514Z,19.79
2017-01-20T07:07:58.700Z,19.86
2017-01-20T07:08:26.986Z,19.81
2017-01-20T07:08:55.095Z,19.82
2017-01-20T07:09:23.354Z,19.81
2017-01-20T07:09:51.627Z,19.87
2017-01-20T07:10:19.923Z,19.81
2017-01-20T07:10:47.994Z,19.81
2017-01-20T07:11:16.107Z,19.78
2017-01-20T07:11:44.322Z,19.81
2017-01-20T07:12:12.554Z,19.84
2017-01-20T07:13:23.879Z,19.87
2017-01-20T07:13:52.128Z,19.84
2017-01-20T07:14:20.226Z,19.86
2017-01-20T07:14:48.434Z,19.93
2017-01-20T07:15:16.598Z,19.79
2017-01-20T07:15:44.685Z,19.79
2017-01-20T07:16:12.979Z,19.92
2017-01-20T07:16:41.142Z,19.87
2017-01-20T07:17:09.354Z,19.82
2017-01-20T07:17:37.571Z,19.77
2017-01-20T07:18:05.806Z,19.84
2017-01-20T07:19:17.046Z,19.77
2017-01-20T07:19:45.203Z,19.81
2017-01-20T07:20:13.490Z,19.86
2017-01-20T07:20:41.695Z,19.78
2017-01-20T07:21:09.946Z,19.78
2017-01-20T07:21:37.939Z,19.84
2017-01-20T07:22:06.231Z,19.89
2017-01-20T07:22:34.424Z,19.87
2017-01-20T07:23:02.734Z,19.81
2017-01-20T07:23:30.859Z,19.93
2017-01-20T07:23:58.997Z,19.86
2017-01-20T07:25:10.233Z,19.86
2017-01-20T07:25:38.393Z,19.82
2017-01-20T07:26:06.584Z,19.81
2017-01-20T07:26:34.704Z,19.81
2017-01-20T07:27:02.962Z,19.77
2017-01-20T07:27:31.049Z,19.74
2017-01-20T07:27:59.254Z,19.72
2017-01-20T07:28:27.330Z,19.79
2017-01-20T07:28:55.541Z,19.67
2017-01-20T07:29:23.759Z,19.67
2017-01-20T07:29:51.901Z,19.71
2017-01-20T07:31:03.132Z,19.72
2017-01-20T07:31:31.104Z,19.7
2017-01-20T07:31:59.305Z,19.71
2017-01-20T07:32:27.230Z,19.77
2017-01-20T07:32:55.486Z,19.72
2017-01-20T07:33:23.568Z,19.7
2017-01-20T07:33:51.770Z,19.63
2017-01-20T07:34:19.926Z,19.74
2017-01-20T07:34:48.136Z,19.64
2017-01-20T07:35:16.257Z,19.71
2017-01-20T07:35:44.493Z,19.62
2017-01-20T07:36:55.729Z,19.67
2017-01-20T07:37:23.981Z,19.62
2017-01-20T07:37:52.079Z,19.6
2017-01-20T07:38:20.292Z,19.64
2017-01-20T07:38:48.550Z,19.63
2017-01-20T07:39:16.817Z,19.64
2017-01-20T07:39:45.114Z,19.62
2017-01-20T07:40:13.279Z,19.67
2017-01-20T07:40:41.392Z,19.72
2017-01-20T07:41:09.516Z,19.62